Latest Weather Observations for Launceston

IDT60801

Issued at 5:31 am EST Friday 29 May 2020 (issued every 10 minutes, with the page automatically refreshed every 10 minutes)

About weather observations | Map of weather stations | Latest weather observations for TAS | Other Formats
Station Details ID: 091237 Name: LAUNCESTON (TI TREE BEND) Lat: -41.42 Lon: 147.12 Height: 5.0 m
Data from the previous 72 hours. | See also: Recent months at Launceston
Date/Time
EST
Temp
°C
App
Temp
°C
Dew
Point
°C
Rel
Hum
%
Delta-T
°C
Wind Press
QNH
hPa
Press
MSL
hPa
Rain since
9am
mm
Dir  Spd
km/h
Gust
km/h
Spd
kts
Gust
kts
29/05:30am 10.6 9.7 10.6 100 0.0 NNW 6 11 3 6 - - -
29/05:00am 9.2 8.1 8.6 96 0.3 NW 4 6 2 3 - - -
29/04:30am 9.2 8.9 8.7 97 0.2 CALM 0 0 0 0 - - -
29/04:00am 9.1 8.8 8.6 97 0.2 CALM 0 0 0 0 - - -
29/03:30am 9.0 8.3 8.7 98 0.1 NE 2 6 1 3 - - -
29/03:00am 8.5 8.1 8.1 97 0.2 CALM 0 0 0 0 - - 0.0
29/02:30am 8.2 7.7 7.8 97 0.2 CALM 0 0 0 0 - - -
29/02:00am 7.7 7.0 7.1 96 0.3 CALM 0 0 0 0 - - -
29/01:30am 7.9 7.2 7.0 94 0.4 CALM 0 0 0 0 - - -
29/01:00am 9.3 8.1 8.2 93 0.5 NW 4 7 2 4 - - -
29/12:30am 9.2 8.0 8.0 92 0.6 NW 4 9 2 5 - - -
29/12:00am 9.1 7.5 8.0 93 0.5 NW 6 7 3 4 - - -
 
Date/Time
EST
Temp
°C
App
Temp
°C
Dew
Point
°C
Rel
Hum
%
Delta-T
°C
Wind Press
QNH
hPa
Press
MSL
hPa
Rain since
9am
mm
Dir  Spd
km/h
Gust
km/h
Spd
kts
Gust
kts
28/11:30pm 9.4 8.6 8.3 93 0.5 W 2 4 1 2 - - -
28/11:00pm 9.7 8.1 8.6 93 0.5 WNW 7 9 4 5 - - -
28/10:30pm 9.8 8.2 8.9 94 0.4 NW 7 11 4 6 - - -
28/10:00pm 9.5 7.9 8.7 95 0.4 NW 7 9 4 5 - - -
28/09:30pm 9.0 7.2 8.1 94 0.4 NNW 7 11 4 6 - - -
28/09:00pm 9.2 7.5 8.3 94 0.4 NW 7 9 4 5 - - 0.0
28/08:30pm 9.6 8.5 8.4 92 0.6 WNW 4 7 2 4 - - -
28/08:00pm 10.2 7.9 9.1 93 0.5 NNW 11 15 6 8 - - -
28/07:30pm 9.9 8.5 9.0 94 0.4 N 6 11 3 6 - - -
28/07:00pm 10.1 8.8 9.2 94 0.4 NNW 6 9 3 5 - - -
28/06:30pm 10.7 9.5 9.6 93 0.6 NNW 6 7 3 4 - - -
28/06:00pm 10.9 9.5 9.7 92 0.6 NW 7 9 4 5 - - -
28/05:30pm 11.5 10.2 9.9 90 0.8 NW 7 9 4 5 - - -
28/05:00pm 12.2 10.2 10.1 87 1.1 NNW 11 17 6 9 - - -
28/04:30pm 12.6 10.2 10.1 85 1.3 NNW 13 20 7 11 - - -
28/04:00pm 12.9 10.9 10.1 83 1.4 NNW 11 17 6 9 - - -
28/03:30pm 13.9 10.8 10.3 79 1.9 NNW 17 24 9 13 - - -
28/03:00pm 14.8 11.4 10.4 75 2.3 NNW 19 32 10 17 - - -
28/02:30pm 15.1 11.7 10.5 74 2.4 NNW 19 28 10 15 - - -
28/02:00pm 15.4 11.8 10.6 73 2.5 NNW 20 30 11 16 - - -
28/01:30pm 15.5 12.0 10.9 74 2.4 N 20 28 11 15 - - -
28/01:00pm 14.6 11.5 10.2 75 2.3 NNW 17 24 9 13 - - -
28/12:30pm 16.1 13.1 10.6 70 2.9 NNW 17 30 9 16 - - -
28/12:00pm 15.4 - 10.4 72 2.6 - - - - - - - -
28/11:30am 14.9 11.6 10.9 77 2.1 N 19 24 10 13 - - 0.0
28/11:00am 14.7 11.4 10.9 78 2.0 NNW 19 28 10 15 - - 0.0
28/10:30am 14.3 11.4 10.9 80 1.8 NNW 17 24 9 13 - - 0.0
28/10:00am 13.8 11.3 11.1 84 1.4 NNW 15 22 8 12 - - 0.0
28/09:30am 13.6 11.7 11.8 89 1.0 NNW 13 19 7 10 - - 0.0
28/09:00am 12.9 11.9 12.4 97 0.3 NW 9 13 5 7 - - 1.0
28/08:30am 11.6 10.6 11.0 96 0.3 NNW 7 9 4 5 - - 1.0
28/08:00am 12.1 11.5 11.8 98 0.2 NW 6 7 3 4 - - 1.0
28/07:30am 11.9 11.0 11.4 97 0.3 NW 7 9 4 5 - - 0.6
28/07:00am 12.1 11.4 11.5 96 0.3 NW 6 6 3 3 - - 0.4
28/06:30am 12.1 11.4 11.5 96 0.3 NW 6 9 3 5 - - 0.4
28/06:00am 12.1 11.2 11.3 95 0.4 NNW 7 9 4 5 - - 0.4
28/05:30am 12.2 11.3 11.3 94 0.5 NW 7 11 4 6 - - 0.2
28/05:00am 12.4 11.5 11.5 94 0.5 NW 7 13 4 7 - - 0.2
28/04:30am 11.7 10.7 10.9 95 0.4 NNW 7 11 4 6 - - 0.2
28/04:00am 10.7 9.6 10.7 100 0.0 NW 7 13 4 7 - - 0.2
28/03:30am 10.4 9.7 10.1 98 0.2 NNW 4 6 2 3 - - 0.2
28/03:00am 9.9 9.8 9.4 97 0.2 CALM 0 0 0 0 - - 0.2
28/02:30am 10.5 10.6 10.0 97 0.3 CALM 0 0 0 0 - - 0.2
28/02:00am 10.5 9.8 10.0 97 0.3 N 4 6 2 3 - - 0.2
28/01:30am 11.2 10.7 10.7 97 0.3 NW 4 6 2 3 - - 0.2
28/01:00am 11.4 10.5 10.8 96 0.3 NNW 6 7 3 4 - - 0.2
28/12:30am 11.7 10.9 10.9 95 0.4 NNW 6 7 3 4 - - 0.2
28/12:00am 12.0 11.2 11.2 95 0.4 NNW 6 7 3 4 - - 0.2
 
Date/Time
EST
Temp
°C
App
Temp
°C
Dew
Point
°C
Rel
Hum
%
Delta-T
°C
Wind Press
QNH
hPa
Press
MSL
hPa
Rain since
9am
mm
Dir  Spd
km/h
Gust
km/h
Spd
kts
Gust
kts
27/11:30pm 12.1 11.3 11.2 94 0.5 NNW 6 9 3 5 - - 0.2
27/11:00pm 12.2 11.5 11.3 94 0.5 NNW 6 7 3 4 - - 0.2
27/10:30pm 12.2 11.2 10.9 92 0.7 NNW 7 7 4 4 - - 0.2
27/10:00pm 13.0 12.2 11.2 89 0.9 NW 6 9 3 5 - - 0.2
27/09:30pm 12.3 11.4 10.5 89 0.9 NNW 6 6 3 3 - - 0.2
27/09:00pm 12.4 11.5 10.6 89 0.9 NNW 6 9 3 5 - - 0.2
27/08:30pm 12.7 12.2 10.8 88 1.0 NW 4 6 2 3 - - 0.2
27/08:00pm 13.1 11.7 11.0 87 1.1 NW 9 15 5 8 - - 0.2
27/07:30pm 12.3 11.3 11.0 92 0.7 NW 7 9 4 5 - - 0.2
27/07:00pm 12.3 11.5 10.9 91 0.7 NW 6 9 3 5 - - 0.2
27/06:30pm 12.7 11.7 11.1 90 0.8 NNW 7 13 4 7 - - 0.2
27/06:00pm 12.7 12.4 11.3 91 0.7 WNW 4 6 2 3 - - 0.0
27/05:30pm 12.8 12.4 11.2 90 0.8 WNW 4 6 2 3 - - 0.0
27/05:00pm 13.6 11.9 11.1 85 1.3 NNW 11 19 6 10 - - 0.0
27/04:30pm 14.0 11.8 10.8 81 1.7 NNW 13 22 7 12 - - 0.0
27/04:00pm 14.5 13.5 11.1 80 1.8 NW 7 13 4 7 - - 0.0
27/03:30pm 14.7 13.9 11.1 79 1.9 NW 6 9 3 5 - - 0.0
27/03:00pm 14.8 12.6 10.8 77 2.1 NW 13 17 7 9 - - 0.0
27/02:30pm 15.3 13.4 10.5 73 2.5 NW 11 17 6 9 - - 0.0
27/02:00pm 15.4 13.5 10.4 72 2.6 NNW 11 22 6 12 - - 0.0
27/01:30pm 15.8 14.0 11.0 73 2.6 N 11 15 6 8 - - 0.0
27/01:00pm 15.5 13.3 10.9 74 2.4 N 13 20 7 11 - - 0.0
27/12:30pm 15.6 13.4 10.8 73 2.5 N 13 22 7 12 - - 0.0
27/12:00pm 15.9 15.0 11.5 75 2.4 NNW 7 15 4 8 - - 0.0
27/11:30am 15.0 14.1 10.8 76 2.2 NNW 6 9 3 5 - - 0.0
27/11:00am 13.3 12.9 9.9 80 1.7 NE 2 4 1 2 - - 0.0
27/10:30am 11.3 11.1 8.9 85 1.2 CALM 0 0 0 0 - - 0.0
27/10:00am 9.6 9.0 7.5 87 1.0 CALM 0 0 0 0 - - 0.0
27/09:30am 8.8 8.2 7.4 91 0.7 CALM 0 0 0 0 - - 0.0
27/09:00am 7.9 7.1 6.7 92 0.6 CALM 0 4 0 2 - - 0.0
27/08:30am 7.5 6.7 6.4 93 0.5 CALM 0 2 0 1 - - 0.0
27/08:00am 7.2 5.5 6.1 93 0.5 E 4 7 2 4 - - 0.0
27/07:30am 7.0 6.1 6.1 94 0.4 CALM 0 0 0 0 - - 0.0
27/07:00am 6.7 5.7 5.8 94 0.4 CALM 0 0 0 0 - - 0.0
27/06:30am 6.4 5.4 5.7 95 0.3 CALM 0 0 0 0 - - 0.0
27/06:00am 6.0 4.9 5.1 94 0.4 CALM 0 0 0 0 - - 0.0
27/05:30am 6.0 4.5 5.1 94 0.4 ENE 2 4 1 2 - - 0.0
27/05:00am 6.4 4.6 5.5 94 0.4 ESE 4 6 2 3 - - 0.0
27/04:30am 6.5 4.4 5.8 95 0.3 E 6 9 3 5 - - 0.0
27/04:00am 7.0 5.8 6.4 96 0.3 SE 2 4 1 2 - - 0.0
27/03:30am 6.9 5.3 6.3 96 0.3 SSE 4 6 2 3 - - 0.0
27/03:00am 6.2 4.4 5.6 96 0.3 SE 4 6 2 3 - - 0.0
27/02:30am 6.2 4.8 5.5 95 0.3 N 2 4 1 2 - - 0.0
27/02:00am 6.7 4.6 5.8 94 0.4 SSE 6 7 3 4 - - 0.0
27/01:30am 7.6 6.8 6.7 94 0.4 CALM 0 0 0 0 - - 0.0
27/01:00am 8.0 6.2 7.2 95 0.4 NNE 6 9 3 5 - - 0.0
27/12:30am 7.6 6.5 6.7 94 0.4 NW 2 6 1 3 - - 0.0
27/12:00am 7.4 6.2 6.5 94 0.4 WNW 2 4 1 2 - - 0.0
 
Date/Time
EST
Temp
°C
App
Temp
°C
Dew
Point
°C
Rel
Hum
%
Delta-T
°C
Wind Press
QNH
hPa
Press
MSL
hPa
Rain since
9am
mm
Dir  Spd
km/h
Gust
km/h
Spd
kts
Gust
kts
26/11:30pm 8.2 7.5 6.8 91 0.6 CALM 0 0 0 0 - - 0.0
26/11:00pm 8.4 7.7 7.0 91 0.7 CALM 0 0 0 0 - - 0.0
26/10:30pm 8.4 7.3 6.9 90 0.7 NNW 2 4 1 2 - - 0.0
26/10:00pm 8.6 7.5 7.1 90 0.7 NNE 2 4 1 2 - - 0.0
26/09:30pm 8.9 8.2 6.9 87 0.9 CALM 0 0 0 0 - - 0.0
26/09:00pm 9.1 7.6 6.9 86 1.0 E 4 6 2 3 - - 0.0
26/08:30pm 9.0 7.5 7.0 87 0.9 S 4 6 2 3 - - 0.0
26/08:00pm 9.1 7.2 6.7 85 1.1 E 6 9 3 5 - - 0.0
26/07:30pm 9.3 7.5 7.1 86 1.0 SE 6 9 3 5 - - 0.0
26/07:00pm 9.3 8.7 7.4 88 0.9 CALM 0 0 0 0 - - 0.0
26/06:30pm 9.5 8.9 7.3 86 1.0 CALM 0 0 0 0 - - 0.0
26/06:00pm 9.7 9.0 7.0 83 1.3 CALM 0 0 0 0 - - 0.0
26/05:30pm 9.7 9.0 7.0 83 1.3 CALM 0 0 0 0 - - 0.0
26/05:00pm 10.2 9.1 6.9 80 1.6 E 2 4 1 2 - - 0.0
26/04:30pm 10.4 8.5 6.9 79 1.7 ENE 6 7 3 4 - - 0.0
26/04:00pm 10.6 8.7 6.6 76 1.9 ENE 6 9 3 5 - - 0.0
26/03:30pm 10.9 9.4 6.6 75 2.0 SSE 4 4 2 2 - - 0.0
26/03:00pm 10.9 9.3 6.3 73 2.2 SE 4 6 2 3 - - 0.0
26/02:30pm 10.6 9.0 6.2 74 2.0 E 4 7 2 4 - - 0.0
26/02:00pm 10.7 8.7 6.3 74 2.1 ESE 6 9 3 5 - - 0.0
26/01:30pm 10.7 8.7 6.3 74 2.1 SSE 6 7 3 4 - - 0.0
26/01:00pm 10.2 8.0 5.4 72 2.2 ESE 6 9 3 5 - - 0.0
26/12:30pm 9.9 7.7 5.5 74 2.0 SSE 6 7 3 4 - - 0.0
26/12:00pm 9.5 7.3 5.3 75 1.9 SSE 6 9 3 5 - - 0.0
26/11:30am 9.4 7.3 5.9 79 1.6 SSE 6 9 3 5 - - 0.0
26/11:00am 9.0 6.6 5.4 78 1.6 SE 7 9 4 5 - - 0.0
26/10:30am 8.7 6.3 5.4 80 1.5 SSE 7 11 4 6 - - 0.0
26/10:00am 8.3 5.5 5.1 80 1.4 SSE 9 15 5 8 - - 0.0
26/09:30am 7.8 6.1 5.9 88 0.9 ESE 4 7 2 4 - - 0.0
26/09:00am 6.8 5.9 6.1 95 0.3 CALM 0 4 0 2 - - 0.0
26/08:30am 5.9 4.1 5.2 95 0.3 E 4 7 2 4 - - 0.0
26/08:00am 5.6 3.8 5.2 97 0.2 SE 4 6 2 3 - - 0.0
26/07:30am 5.1 3.9 4.7 97 0.2 CALM 0 0 0 0 - - 0.0
26/07:00am 5.0 3.8 4.6 97 0.2 CALM 0 0 0 0 - - 0.0
26/06:30am 4.7 3.4 4.1 96 0.3 CALM 0 0 0 0 - - 0.0
26/06:00am 4.8 3.5 4.2 96 0.3 CALM 0 0 0 0 - - 0.0

Other formats

Comma delimited format used in spreadsheet applications
http://www.bom.gov.au/fwo/IDT60801/IDT60801.94969.axf

JavaScript Object Notation format (JSON) in row-major order
http://www.bom.gov.au/fwo/IDT60801/IDT60801.94969.json

Data quality

Most of these data are generated automatically and are frequently updated. Quality checks on data are not normally performed. It is possible for incorrect values to appear. Refer to information at About Latest Weather Observations and please check the disclaimer before using these data.